Time;durP1;ratioP1;P1;durP2;ratioP2;P2;SDS_P1;SDS_P2;PMS_P1;PMS_P2;Temp;Humidity;BMP_temperature;BMP_pressure;BME280_temperature;BME280_humidity;BME280_pressure;Samples;Min_cycle;Max_cycle;Signal;HPM_P1;HPM_P2
2022/07/30 00:00:59;;;;;;;12.70;5.15;;;;;;;17.86;69.68;101731.59;5095458;28;20526;-48
2022/07/30 00:03:26;;;;;;;14.15;5.60;;;;;;;17.86;69.54;101718.16;5095023;28;20058;-46
2022/07/30 00:05:53;;;;;;;10.48;5.50;;;;;;;17.78;70.31;101718.03;5095379;28;20055;-47
2022/07/30 00:08:18;;;;;;;12.82;5.60;;;;;;;17.81;70.35;101720.44;5094809;28;20020;-46
2022/07/30 00:10:44;;;;;;;10.90;5.13;;;;;;;17.76;70.87;101709.28;5092533;28;20035;-49
2022/07/30 00:13:09;;;;;;;10.30;4.72;;;;;;;17.75;71.03;101715.63;5083789;28;20024;-47
2022/07/30 00:15:34;;;;;;;10.20;5.10;;;;;;;17.71;69.96;101716.91;5094302;28;20042;-49
2022/07/30 00:18:00;;;;;;;6.45;4.75;;;;;;;17.66;71.15;101709.28;5095235;28;20386;-48
2022/07/30 00:20:25;;;;;;;7.38;4.45;;;;;;;17.65;71.94;101712.97;5095340;28;20081;-48
2022/07/30 00:22:50;;;;;;;12.98;5.25;;;;;;;17.61;71.72;101710.72;5095186;28;20107;-48
2022/07/30 00:25:17;;;;;;;10.70;4.90;;;;;;;17.53;71.92;101708.72;5093969;28;20438;-47
2022/07/30 00:27:43;;;;;;;11.50;4.78;;;;;;;17.49;71.28;101708.16;5094819;28;20108;-49
2022/07/30 00:30:08;;;;;;;9.85;4.90;;;;;;;17.45;72.16;101705.91;5094919;28;20051;-48
2022/07/30 00:32:34;;;;;;;10.50;5.25;;;;;;;17.45;72.52;101711.25;5094028;28;20401;-48
2022/07/30 00:34:59;;;;;;;9.57;5.97;;;;;;;17.41;72.73;101713.38;5094706;28;20027;-47
2022/07/30 00:37:24;;;;;;;10.13;5.47;;;;;;;17.36;73.43;101715.66;5094909;28;20024;-47
2022/07/30 00:39:49;;;;;;;9.43;5.53;;;;;;;17.34;73.29;101721.16;5094670;28;20274;-47
2022/07/30 00:42:16;;;;;;;11.48;6.13;;;;;;;17.32;73.57;101714.22;5091527;28;20036;-51
2022/07/30 00:44:41;;;;;;;12.10;6.20;;;;;;;17.29;74.13;101726.09;5092187;28;20115;-48
2022/07/30 00:47:07;;;;;;;16.42;6.28;;;;;;;17.29;74.13;101715.38;5091802;28;20062;-47
2022/07/30 00:49:32;;;;;;;14.43;6.05;;;;;;;17.27;74.42;101717.34;5094589;28;20024;-48
2022/07/30 00:51:57;;;;;;;13.97;6.20;;;;;;;17.28;74.04;101720.88;5150737;22;20068;-82
2022/07/30 00:54:23;;;;;;;13.15;6.40;;;;;;;17.23;74.29;101712.41;5094704;28;20299;-83
2022/07/30 00:56:49;;;;;;;9.27;5.95;;;;;;;17.21;74.23;101712.53;5101701;28;20028;-83
2022/07/30 00:59:14;;;;;;;9.55;6.53;;;;;;;17.17;74.79;101711.13;5087671;28;20021;-84
2022/07/30 01:01:40;;;;;;;12.27;6.55;;;;;;;17.10;75.08;101710.84;5096622;28;20043;-82
2022/07/30 01:04:10;;;;;;;12.52;6.53;;;;;;;17.05;75.59;101707.69;5079020;28;20515;-82
2022/07/30 01:06:36;;;;;;;13.68;6.95;;;;;;;17.02;75.43;101699.94;5071101;28;20055;-82
2022/07/30 01:09:01;;;;;;;12.15;7.50;;;;;;;16.97;75.79;101700.34;5084576;28;20044;-82
2022/07/30 01:11:33;;;;;;;12.60;6.68;;;;;;;16.97;75.45;101697.69;5071313;28;20020;-82
2022/07/30 01:13:58;;;;;;;10.60;6.97;;;;;;;16.96;75.81;101695.13;5085763;28;20053;-82
2022/07/30 01:16:24;;;;;;;11.00;7.05;;;;;;;16.92;75.31;101699.06;5083479;28;20092;-82
2022/07/30 01:21:43;;;;;;;16.77;7.40;;;;;;;16.89;76.14;101710.09;5064471;28;20121;-82
2022/07/30 01:24:14;;;;;;;15.77;7.90;;;;;;;16.82;75.23;101704.41;5077739;28;20033;-83
2022/07/30 01:26:39;;;;;;;13.43;7.90;;;;;;;16.81;76.44;101698.16;5071940;28;20032;-82
2022/07/30 01:29:06;;;;;;;13.63;7.57;;;;;;;16.79;76.23;101705.50;5096882;28;20536;-82
2022/07/30 01:31:33;;;;;;;12.38;7.63;;;;;;;16.73;76.95;101702.53;5086632;28;20029;-82
2022/07/30 01:34:00;;;;;;;17.20;8.05;;;;;;;16.70;77.38;101709.00;5088379;28;20108;-82
2022/07/30 01:36:27;;;;;;;11.88;8.00;;;;;;;16.70;77.35;101700.09;5070760;28;20032;-83
2022/07/30 01:38:54;;;;;;;13.70;8.10;;;;;;;16.71;76.67;101701.81;5081121;28;20035;-83
2022/07/30 01:41:20;;;;;;;12.82;8.10;;;;;;;16.69;77.73;101698.44;5079817;28;20047;-82
2022/07/30 01:43:46;;;;;;;13.82;7.68;;;;;;;16.62;77.75;101715.06;5087693;28;20029;-82
2022/07/30 01:46:15;;;;;;;13.60;9.00;;;;;;;16.62;77.60;101709.69;5087792;28;20021;-82
2022/07/30 01:48:41;;;;;;;14.00;8.40;;;;;;;16.62;77.81;101709.69;5074392;28;20040;-82
2022/07/30 01:51:08;;;;;;;14.52;8.52;;;;;;;16.54;78.15;101708.69;5070616;28;20055;-82
2022/07/30 01:53:37;;;;;;;14.13;8.85;;;;;;;16.57;77.76;101708.38;5085331;28;20092;-83
2022/07/30 01:56:04;;;;;;;21.08;9.88;;;;;;;16.49;78.72;101705.53;5087065;28;20040;-83
2022/07/30 01:58:35;;;;;;;14.63;9.77;;;;;;;16.48;78.93;101712.75;5081592;28;20037;-83
2022/07/30 02:01:00;;;;;;;15.23;9.60;;;;;;;16.43;78.43;101704.25;5079987;28;20020;-83
2022/07/30 02:03:26;;;;;;;16.23;10.27;;;;;;;16.41;78.23;101703.53;5061946;28;20032;-83
2022/07/30 02:05:56;;;;;;;18.02;9.50;;;;;;;16.41;78.29;101700.88;5089440;28;20024;-82
2022/07/30 02:08:36;;;;;;;18.63;9.95;;;;;;;16.38;77.77;101703.81;5082440;28;20064;-83
2022/07/30 02:11:08;;;;;;;13.50;9.85;;;;;;;16.33;78.71;101706.03;5071325;28;20057;-83
2022/07/30 02:13:44;;;;;;;19.48;10.25;;;;;;;16.34;78.17;101715.81;5072608;28;20058;-83
2022/07/30 02:16:21;;;;;;;15.20;10.48;;;;;;;16.31;78.08;101716.91;5080581;28;20043;-82
2022/07/30 02:18:55;;;;;;;17.30;10.13;;;;;;;16.31;78.48;101708.84;5098622;28;20092;-83
2022/07/30 02:21:23;;;;;;;14.48;10.80;;;;;;;16.31;78.17;101716.06;5097318;28;20036;-83
2022/07/30 02:23:53;;;;;;;18.05;10.75;;;;;;;16.22;78.73;101712.31;5083141;28;20095;-82
2022/07/30 02:26:23;;;;;;;14.15;10.10;;;;;;;16.18;78.25;101703.72;5085442;28;20020;-83
2022/07/30 02:29:01;;;;;;;12.93;10.23;;;;;;;16.16;78.20;101707.53;5087772;28;20095;-83
2022/07/30 02:31:28;;;;;;;15.50;10.55;;;;;;;16.17;78.45;101703.84;5067180;28;20457;-83
2022/07/30 02:33:57;;;;;;;11.60;10.32;;;;;;;16.11;78.82;101712.44;5081902;28;20029;-83
2022/07/30 02:36:24;;;;;;;16.35;11.63;;;;;;;16.04;79.29;101718.31;5071078;28;20104;-83
2022/07/30 02:38:51;;;;;;;15.77;10.73;;;;;;;16.07;78.70;101711.81;5074820;28;20024;-84
2022/07/30 02:41:19;;;;;;;15.77;10.80;;;;;;;16.08;78.63;101717.06;5074335;28;20478;-82
2022/07/30 02:43:46;;;;;;;15.38;11.35;;;;;;;16.05;78.82;101714.66;5092335;28;20038;-83
2022/07/30 02:46:16;;;;;;;15.50;11.05;;;;;;;15.95;79.02;101713.72;5082062;28;20033;-82
2022/07/30 02:48:44;;;;;;;16.45;11.77;;;;;;;15.95;79.19;101716.41;5076090;28;20029;-83
2022/07/30 02:51:15;;;;;;;16.65;11.60;;;;;;;15.96;79.56;101720.78;5077708;28;20048;-83
2022/07/30 02:53:44;;;;;;;13.93;11.20;;;;;;;15.94;79.85;101725.44;5089494;28;20084;-81
2022/07/30 02:56:12;;;;;;;14.18;11.45;;;;;;;15.96;79.51;101728.84;5075065;28;20100;-81
2022/07/30 02:58:39;;;;;;;15.48;11.45;;;;;;;15.93;80.01;101729.09;5093426;28;20036;-82
2022/07/30 03:01:06;;;;;;;15.10;12.38;;;;;;;15.88;79.83;101732.16;5081535;28;20047;-82
2022/07/30 03:03:34;;;;;;;15.85;12.50;;;;;;;15.89;79.49;101727.66;5092190;28;20084;-82
2022/07/30 03:06:01;;;;;;;17.75;12.15;;;;;;;15.85;80.53;101728.91;5094304;28;20024;-82
2022/07/30 03:08:28;;;;;;;15.23;12.27;;;;;;;15.85;80.36;101729.75;5082860;28;20025;-81
2022/07/30 03:10:55;;;;;;;19.85;12.85;;;;;;;15.83;80.88;101738.91;5091586;28;20050;-82
2022/07/30 03:13:23;;;;;;;20.42;12.18;;;;;;;15.82;80.47;101737.19;5081635;28;20033;-82
2022/07/30 03:15:50;;;;;;;17.10;12.50;;;;;;;15.79;80.51;101737.47;5089831;28;20033;-82
2022/07/30 03:18:17;;;;;;;15.20;12.13;;;;;;;15.76;80.66;101735.88;5089424;28;20035;-82
2022/07/30 03:20:50;;;;;;;15.05;12.63;;;;;;;15.77;80.69;101731.38;5098012;28;20025;-82
2022/07/30 03:23:17;;;;;;;15.82;12.55;;;;;;;15.74;80.77;101732.47;5090746;28;20047;-82
2022/07/30 03:25:46;;;;;;;14.93;12.02;;;;;;;15.70;81.13;101731.88;5093857;28;20071;-81
2022/07/30 03:28:13;;;;;;;18.35;12.55;;;;;;;15.67;81.08;101726.78;5091742;28;20104;-81
2022/07/30 03:30:40;;;;;;;18.75;12.82;;;;;;;15.64;80.79;101727.03;5081573;28;20039;-82
2022/07/30 03:33:05;;;;;;;15.55;11.82;;;;;;;15.67;81.05;101729.47;5097755;28;20036;-82
2022/07/30 03:35:32;;;;;;;16.35;12.18;;;;;;;15.63;80.55;101725.31;5097866;28;20032;-81
2022/07/30 03:37:58;;;;;;;13.52;12.18;;;;;;;15.60;80.67;101730.09;5086915;28;20020;-82
2022/07/30 03:40:24;;;;;;;17.63;12.05;;;;;;;15.61;80.95;101726.44;5085672;28;20036;-84
2022/07/30 03:42:49;;;;;;;16.73;13.23;;;;;;;15.54;81.11;101729.63;5099062;28;20052;-82
2022/07/30 03:45:17;;;;;;;15.75;11.98;;;;;;;15.55;80.71;101738.50;5096151;28;20072;-82
2022/07/30 03:47:43;;;;;;;15.98;12.10;;;;;;;15.54;80.94;101737.66;5099048;28;20033;-83
2022/07/30 03:50:09;;;;;;;20.15;12.57;;;;;;;15.50;80.59;101740.72;5096079;28;20023;-82
2022/07/30 03:52:39;;;;;;;18.98;12.52;;;;;;;15.49;79.94;101739.03;5093096;28;20073;-82
2022/07/30 03:55:06;;;;;;;14.90;12.20;;;;;;;15.52;80.45;101746.78;5078457;28;20035;-82
2022/07/30 03:57:32;;;;;;;17.25;12.48;;;;;;;15.48;80.95;101750.72;5047911;28;20021;-82
2022/07/30 03:59:58;;;;;;;13.73;12.15;;;;;;;15.45;81.48;101746.44;5090685;28;20021;-82
2022/07/30 04:02:23;;;;;;;16.35;13.55;;;;;;;15.44;81.21;101751.97;5085108;28;20017;-82
2022/07/30 04:04:48;;;;;;;18.92;12.75;;;;;;;15.41;81.59;101745.00;5091538;28;20044;-82
2022/07/30 04:07:14;;;;;;;17.65;12.38;;;;;;;15.41;81.46;101753.03;5094353;28;20100;-82
2022/07/30 04:09:39;;;;;;;15.52;12.55;;;;;;;15.38;81.76;101761.31;5098884;28;20024;-83
2022/07/30 04:12:05;;;;;;;18.80;12.87;;;;;;;15.35;81.77;101756.22;5081639;28;20044;-82
2022/07/30 04:14:39;;;;;;;19.02;12.82;;;;;;;15.34;81.79;101760.72;5090592;28;20291;-83
2022/07/30 04:17:10;;;;;;;20.33;12.07;;;;;;;15.30;81.80;101774.47;5085972;28;20044;-83
2022/07/30 04:19:45;;;;;;;14.18;11.55;;;;;;;15.30;81.53;101764.63;5099572;28;20036;-84
2022/07/30 04:22:15;;;;;;;15.35;11.88;;;;;;;15.24;82.21;101775.84;5099061;28;20021;-83
2022/07/30 04:24:41;;;;;;;17.55;13.00;;;;;;;15.26;82.54;101770.38;5081792;28;20005;-82
2022/07/30 04:27:06;;;;;;;19.25;12.02;;;;;;;15.27;82.19;101772.94;5091609;28;20020;-82
2022/07/30 04:29:31;;;;;;;15.75;12.20;;;;;;;15.24;82.63;101775.84;5082697;28;20037;-82
2022/07/30 04:31:57;;;;;;;15.65;12.43;;;;;;;15.27;82.17;101772.94;5089701;28;20034;-82
2022/07/30 04:34:23;;;;;;;16.67;12.57;;;;;;;15.26;82.28;101778.41;5092326;28;20096;-82
2022/07/30 04:36:48;;;;;;;15.83;11.90;;;;;;;15.25;81.72;101772.19;5083178;28;20056;-82
2022/07/30 04:39:13;;;;;;;14.88;12.30;;;;;;;15.28;81.54;101779.97;5098675;28;20270;-82
2022/07/30 04:41:39;;;;;;;18.40;12.07;;;;;;;15.27;82.48;101777.41;5095339;28;20059;-82
2022/07/30 04:44:04;;;;;;;16.67;12.15;;;;;;;15.24;82.53;101786.56;5100280;28;20011;-82
2022/07/30 04:46:31;;;;;;;17.35;12.70;;;;;;;15.24;82.59;101789.22;5100508;28;20017;-82
2022/07/30 04:48:56;;;;;;;18.33;12.98;;;;;;;15.26;82.77;101791.78;5080658;28;20377;-83
2022/07/30 04:51:28;;;;;;;20.75;11.98;;;;;;;15.24;82.30;101789.22;5079628;28;20055;-83
2022/07/30 04:53:54;;;;;;;17.83;12.30;;;;;;;15.27;82.23;101797.00;5065235;28;20017;-83
2022/07/30 04:56:21;;;;;;;16.63;12.35;;;;;;;15.24;83.92;101793.72;5078789;28;20033;-83
2022/07/30 04:58:47;;;;;;;18.08;12.05;;;;;;;15.24;83.91;101794.59;5074539;28;20036;-82
2022/07/30 05:01:23;;;;;;;14.27;12.52;;;;;;;15.27;83.50;101801.50;5086466;28;20029;-82
2022/07/30 05:03:51;;;;;;;15.48;11.95;;;;;;;15.27;83.97;101802.38;5083779;28;20044;-82
2022/07/30 05:06:18;;;;;;;16.05;11.75;;;;;;;15.30;84.11;101802.09;5097624;28;20020;-81
2022/07/30 05:08:44;;;;;;;16.60;11.63;;;;;;;15.35;83.44;101807.94;5096675;28;20021;-81
2022/07/30 05:11:13;;;;;;;16.33;12.07;;;;;;;15.39;83.41;101807.66;5090562;28;20044;-82
2022/07/30 05:13:43;;;;;;;17.20;11.77;;;;;;;15.41;83.89;101806.59;5090510;28;20040;-83
2022/07/30 05:16:08;;;;;;;16.25;10.93;;;;;;;15.47;83.96;101799.88;5097513;28;20084;-83
2022/07/30 05:18:34;;;;;;;14.55;11.57;;;;;;;15.50;84.29;101797.81;5098086;28;20031;-84
2022/07/30 05:20:59;;;;;;;17.35;11.90;;;;;;;15.54;83.94;101801.91;5098172;28;20035;-83
2022/07/30 05:23:25;;;;;;;17.85;11.05;;;;;;;15.56;84.55;101798.28;5089112;28;20471;-83
2022/07/30 05:25:50;;;;;;;19.42;12.43;;;;;;;15.57;84.52;101792.78;5083908;28;20025;-84
2022/07/30 05:28:15;;;;;;;16.45;11.73;;;;;;;15.64;84.48;101798.50;5092762;28;20029;-82
2022/07/30 05:30:40;;;;;;;19.48;11.65;;;;;;;15.70;84.47;101803.31;5084888;28;20047;-83
2022/07/30 05:33:06;;;;;;;16.25;12.10;;;;;;;15.78;85.01;101808.09;5097422;28;20044;-83
2022/07/30 05:35:31;;;;;;;16.92;12.52;;;;;;;15.88;84.76;101807.16;5099062;28;20039;-84
2022/07/30 05:37:58;;;;;;;14.18;12.68;;;;;;;15.98;84.82;101812.59;5085612;28;20016;-83
2022/07/30 05:40:24;;;;;;;17.05;12.73;;;;;;;16.13;84.32;101812.31;5084351;28;20040;-83
2022/07/30 05:42:49;;;;;;;16.70;12.73;;;;;;;16.27;84.01;101818.19;5093741;28;20013;-83
2022/07/30 05:45:14;;;;;;;15.93;12.20;;;;;;;16.48;83.06;101813.78;5095214;28;20028;-83
2022/07/30 05:47:40;;;;;;;15.20;11.88;;;;;;;16.56;82.88;101819.34;5096323;28;20051;-82
2022/07/30 05:50:06;;;;;;;15.35;12.13;;;;;;;16.77;82.11;101816.59;5093400;28;20029;-82
2022/07/30 05:52:32;;;;;;;20.38;12.02;;;;;;;16.86;81.80;101810.47;5091014;28;20063;-81
2022/07/30 05:54:57;;;;;;;17.73;12.02;;;;;;;16.98;81.35;101816.59;5089881;28;20017;-82
2022/07/30 05:57:23;;;;;;;18.33;11.67;;;;;;;17.10;80.87;101810.16;5082613;28;20028;-80
2022/07/30 05:59:49;;;;;;;16.50;11.23;;;;;;;17.25;80.30;101812.44;5094826;28;20329;-80
2022/07/30 06:02:14;;;;;;;19.23;11.40;;;;;;;17.36;79.90;101810.47;5095160;28;20028;-82
2022/07/30 06:04:40;;;;;;;14.40;11.07;;;;;;;17.53;79.55;101818.84;5083174;28;20033;-81
2022/07/30 06:07:05;;;;;;;16.17;10.60;;;;;;;17.70;78.51;101814.63;5079964;28;20024;-81
2022/07/30 06:09:33;;;;;;;17.13;10.77;;;;;;;17.78;78.51;101825.50;5084877;28;20037;-81
2022/07/30 06:12:02;;;;;;;17.50;10.50;;;;;;;17.80;78.00;101820.84;5076609;28;20028;-81
2022/07/30 06:14:28;;;;;;;15.93;10.43;;;;;;;17.93;77.89;101829.50;5069047;28;20041;-81
2022/07/30 06:16:53;;;;;;;13.55;10.55;;;;;;;18.04;77.17;101817.78;5076380;28;20043;-80
2022/07/30 06:19:19;;;;;;;16.92;10.35;;;;;;;18.15;76.73;101823.97;5089509;28;20029;-79
2022/07/30 06:21:44;;;;;;;17.52;10.02;;;;;;;18.15;76.55;101823.97;5073009;28;20041;-80
2022/07/30 06:24:10;;;;;;;14.77;9.10;;;;;;;18.31;76.24;101824.25;5084740;28;20016;-80
2022/07/30 06:26:35;;;;;;;14.07;8.98;;;;;;;18.25;76.35;101830.19;5070167;28;20294;-79
2022/07/30 06:29:00;;;;;;;13.23;8.93;;;;;;;18.34;76.08;101833.88;5087408;28;20027;-79
2022/07/30 06:31:26;;;;;;;13.02;9.20;;;;;;;18.49;75.51;101830.56;5092301;28;20044;-79
2022/07/30 06:33:51;;;;;;;14.93;8.57;;;;;;;18.63;75.14;101833.78;5090972;28;20032;-80
2022/07/30 06:36:16;;;;;;;17.23;8.02;;;;;;;18.66;74.28;101828.97;5087486;28;20032;-80
2022/07/30 06:38:41;;;;;;;15.32;8.57;;;;;;;18.94;73.91;101833.59;5094992;28;20055;-80
2022/07/30 06:41:07;;;;;;;12.50;7.50;;;;;;;19.12;73.41;101837.19;5088089;28;20049;-81
2022/07/30 06:43:32;;;;;;;9.45;7.65;;;;;;;19.23;72.60;101839.69;5085693;28;20461;-81
2022/07/30 06:45:58;;;;;;;11.00;7.30;;;;;;;19.54;71.35;101843.88;5095513;28;20063;-81
2022/07/30 06:48:23;;;;;;;13.13;7.68;;;;;;;19.72;70.37;101835.81;5092903;28;20298;-81
2022/07/30 06:50:49;;;;;;;11.75;7.55;;;;;;;19.92;69.90;101833.84;5078184;28;20027;-81
2022/07/30 06:53:14;;;;;;;12.60;7.32;;;;;;;20.00;68.75;101833.91;5089618;28;20091;-82
2022/07/30 06:55:39;;;;;;;10.95;5.25;;;;;;;20.23;67.95;101836.09;5088941;28;20025;-83
2022/07/30 06:58:05;;;;;;;10.50;5.65;;;;;;;20.50;67.36;101844.06;5094980;28;20036;-82
2022/07/30 07:00:30;;;;;;;9.75;5.72;;;;;;;20.71;66.43;101842.88;5087665;28;20037;-82
2022/07/30 07:02:56;;;;;;;12.90;5.97;;;;;;;20.82;66.30;101845.28;5067715;28;20067;-84
2022/07/30 07:05:22;;;;;;;11.32;5.32;;;;;;;20.82;65.16;101847.16;5081948;28;20032;-82
2022/07/30 07:07:47;;;;;;;7.00;4.95;;;;;;;20.81;65.34;101846.28;5076908;28;20029;-82
2022/07/30 07:10:13;;;;;;;9.57;4.30;;;;;;;21.00;65.38;101845.22;5090907;28;20078;-83
2022/07/30 07:12:38;;;;;;;9.15;4.10;;;;;;;21.03;64.90;101842.19;5087789;28;20052;-83
2022/07/30 07:15:04;;;;;;;12.60;5.07;;;;;;;21.05;63.75;101839.34;5085359;28;20080;-83
2022/07/30 07:17:29;;;;;;;7.55;4.40;;;;;;;21.25;62.72;101846.16;5080111;28;20031;-83
2022/07/30 07:19:55;;;;;;;12.73;4.07;;;;;;;21.57;61.98;101846.44;5069367;28;20064;-82
2022/07/30 07:22:20;;;;;;;9.30;3.50;;;;;;;21.72;60.54;101849.34;5064138;28;20060;-83
2022/07/30 07:24:45;;;;;;;7.57;3.40;;;;;;;22.08;59.84;101838.19;5063550;28;20283;-83
2022/07/30 07:27:11;;;;;;;8.30;3.17;;;;;;;22.30;60.17;101834.84;5063812;28;20290;-83
2022/07/30 07:29:36;;;;;;;11.70;3.28;;;;;;;22.60;57.90;101839.69;5074539;28;20328;-84
2022/07/30 07:32:01;;;;;;;9.83;3.73;;;;;;;22.92;56.83;101845.03;5045127;28;20119;-82
2022/07/30 07:34:26;;;;;;;8.07;2.88;;;;;;;23.18;54.40;101843.94;5063705;28;20283;-83
2022/07/30 07:36:52;;;;;;;8.82;2.80;;;;;;;23.34;53.91;101840.28;5086129;28;20063;-83
2022/07/30 07:39:17;;;;;;;7.78;2.53;;;;;;;23.68;53.83;101849.94;5084682;28;20032;-81
2022/07/30 07:41:42;;;;;;;7.57;2.37;;;;;;;23.77;53.38;101848.84;5075296;28;20067;-81
2022/07/30 07:44:07;;;;;;;10.47;2.73;;;;;;;23.91;51.71;101847.22;5062547;28;20761;-81
2022/07/30 07:46:33;;;;;;;6.83;2.47;;;;;;;24.06;50.75;101841.03;5069869;28;20360;-79
2022/07/30 07:48:59;;;;;;;5.57;2.30;;;;;;;24.04;50.74;101841.19;5071038;28;20287;-80
2022/07/30 07:51:24;;;;;;;5.93;2.30;;;;;;;24.13;51.75;101848.25;5067752;28;20057;-80
2022/07/30 07:53:49;;;;;;;7.90;2.60;;;;;;;24.35;49.82;101842.97;5076070;28;20483;-80
2022/07/30 07:56:14;;;;;;;5.10;2.03;;;;;;;24.63;49.53;101843.22;5074871;28;20036;-80
2022/07/30 07:58:40;;;;;;;6.00;2.03;;;;;;;24.66;48.30;101842.81;5076013;28;20043;-80
2022/07/30 08:01:05;;;;;;;5.97;2.10;;;;;;;24.87;47.10;101847.53;5075987;28;20032;-80
2022/07/30 08:03:31;;;;;;;9.55;2.50;;;;;;;24.81;47.59;101845.53;5069080;28;20050;-80
2022/07/30 08:05:56;;;;;;;5.88;2.45;;;;;;;24.93;47.84;101849.50;5074862;28;20033;-80
2022/07/30 08:08:21;;;;;;;6.78;2.42;;;;;;;25.13;46.60;101843.47;5066797;28;20036;-80
2022/07/30 08:10:47;;;;;;;5.70;2.15;;;;;;;25.29;46.94;101843.28;5075702;28;20021;-81
2022/07/30 08:13:13;;;;;;;5.10;2.10;;;;;;;25.63;44.95;101839.06;5065259;28;20028;-80
2022/07/30 08:15:38;;;;;;;9.45;2.00;;;;;;;25.87;45.50;101839.72;5049249;28;20013;-80
2022/07/30 08:18:04;;;;;;;5.50;2.20;;;;;;;26.13;43.60;101841.00;5070218;28;21375;-80
2022/07/30 08:20:29;;;;;;;7.30;2.67;;;;;;;26.30;44.79;101834.25;5068370;28;20278;-80
2022/07/30 08:22:55;;;;;;;4.47;1.80;;;;;;;26.46;43.48;101833.06;5061822;28;20044;-81
2022/07/30 08:25:22;;;;;;;6.68;2.33;;;;;;;26.75;42.16;101832.03;5065344;28;20052;-82
2022/07/30 08:27:47;;;;;;;4.90;2.03;;;;;;;26.83;41.37;101830.19;5060916;28;20032;-82
2022/07/30 08:30:13;;;;;;;8.07;2.10;;;;;;;27.20;41.77;101834.34;5076076;28;20033;-82
2022/07/30 08:32:38;;;;;;;5.05;2.45;;;;;;;27.29;40.68;101843.22;5068898;28;20365;-82
2022/07/30 08:35:04;;;;;;;6.67;1.90;;;;;;;27.54;40.14;101838.03;5073758;28;20526;-82
2022/07/30 08:37:30;;;;;;;4.13;2.10;;;;;;;27.67;40.25;101837.22;5054960;28;20266;-83
2022/07/30 08:39:55;;;;;;;6.90;2.20;;;;;;;27.63;39.96;101830.53;5082274;28;20032;-83
2022/07/30 08:42:21;;;;;;;4.88;1.80;;;;;;;27.84;38.77;101833.03;5106597;28;20040;-82
2022/07/30 08:44:47;;;;;;;5.38;2.00;;;;;;;27.87;38.35;101838.09;5100820;28;20039;-83
2022/07/30 08:47:19;;;;;;;2.88;1.73;;;;;;;27.97;38.31;101829.50;5092452;28;20040;-82
2022/07/30 08:49:46;;;;;;;6.90;2.13;;;;;;;28.10;37.64;101825.94;5085897;28;20024;-83
2022/07/30 08:52:11;;;;;;;4.65;1.55;;;;;;;28.27;36.49;101831.81;5057838;28;20203;-83
2022/07/30 08:54:39;;;;;;;2.92;1.90;;;;;;;28.27;38.05;101831.00;5081216;28;20103;-83
2022/07/30 08:57:04;;;;;;;4.32;1.80;;;;;;;28.52;37.43;101834.72;5089682;28;20031;-84
2022/07/30 08:59:30;;;;;;;8.23;2.20;;;;;;;28.74;36.46;101831.75;5076661;28;20028;-84
2022/07/30 09:01:57;;;;;;;4.45;2.20;;;;;;;28.56;36.73;101836.03;5074269;28;20027;-82
2022/07/30 09:04:22;;;;;;;6.25;2.72;;;;;;;28.92;36.82;101826.44;5067934;28;20040;-82
2022/07/30 09:06:48;;;;;;;4.32;2.00;;;;;;;29.33;36.47;101830.72;5083581;28;20043;-82
2022/07/30 09:09:14;;;;;;;6.47;1.98;;;;;;;29.28;35.88;101825.06;5071277;28;20395;-83
2022/07/30 09:11:39;;;;;;;3.00;1.80;;;;;;;29.59;35.19;101825.28;5073858;28;20024;-83
2022/07/30 09:14:10;;;;;;;5.70;2.08;;;;;;;29.68;35.14;101833.00;5057876;28;20028;-83
2022/07/30 09:16:36;;;;;;;3.85;1.98;;;;;;;29.89;34.28;101836.47;5066373;28;20475;-82
2022/07/30 09:19:15;;;;;;;6.43;1.98;;;;;;;30.10;34.94;101837.16;5074999;28;20016;-83
2022/07/30 09:21:40;;;;;;;4.10;1.60;;;;;;;30.34;33.21;101836.28;5074640;28;20027;-83
2022/07/30 09:24:09;;;;;;;6.75;1.90;;;;;;;30.66;33.44;101844.44;5075000;28;20029;-83
2022/07/30 09:27:01;;;;;;;7.40;1.77;;;;;;;30.67;34.53;101851.59;5074171;28;20022;-83
2022/07/30 09:29:28;;;;;;;3.45;1.90;;;;;;;30.51;31.75;101847.56;5071062;28;20021;-83
2022/07/30 09:31:59;;;;;;;7.55;1.90;;;;;;;30.72;31.94;101848.16;5075336;28;20059;-83
2022/07/30 09:34:27;;;;;;;3.22;1.42;;;;;;;30.74;32.67;101849.63;5074447;28;20028;-83
2022/07/30 09:36:54;;;;;;;4.60;1.50;;;;;;;30.80;31.28;101851.44;5074485;28;20024;-83
2022/07/30 09:39:32;;;;;;;3.95;2.08;;;;;;;30.89;32.26;101851.97;5068441;28;20071;-83
2022/07/30 09:41:58;;;;;;;6.15;1.83;;;;;;;31.07;31.02;101848.41;5072840;28;20020;-83
2022/07/30 09:44:25;;;;;;;5.57;1.83;;;;;;;31.06;31.43;101844.00;5075074;28;20020;-83
2022/07/30 09:46:51;;;;;;;5.90;2.13;;;;;;;31.37;30.69;101836.59;5074402;28;20024;-83
2022/07/30 09:49:21;;;;;;;5.13;1.77;;;;;;;31.37;29.88;101839.34;5074805;28;20035;-83
2022/07/30 09:51:48;;;;;;;7.35;2.30;;;;;;;31.20;29.99;101839.16;5059943;28;20045;-83
2022/07/30 09:54:13;;;;;;;5.30;1.73;;;;;;;31.50;29.96;101833.66;5074323;28;20371;-82
2022/07/30 09:56:39;;;;;;;5.13;1.40;;;;;;;31.75;29.06;101829.94;5074352;28;20025;-83
2022/07/30 09:59:06;;;;;;;2.60;1.25;;;;;;;31.76;29.23;101826.16;5055336;28;20534;-82
2022/07/30 10:01:51;;;;;;;2.75;1.15;;;;;;;32.07;30.85;101824.16;5065482;28;20451;-83
2022/07/30 10:04:30;;;;;;;5.50;1.77;;;;;;;32.31;29.87;101822.28;5089178;28;20510;-83
2022/07/30 10:06:58;;;;;;;5.10;1.40;;;;;;;32.24;29.02;101819.66;5073605;28;20040;-83
2022/07/30 10:09:29;;;;;;;4.55;1.70;;;;;;;32.58;28.13;101811.59;5074178;28;20033;-83
2022/07/30 10:11:56;;;;;;;3.85;1.40;;;;;;;32.57;28.60;101823.66;5062043;28;20468;-83
2022/07/30 10:14:23;;;;;;;3.90;1.50;;;;;;;32.72;27.70;101825.94;5068391;28;20099;-83
2022/07/30 10:16:50;;;;;;;3.70;2.43;;;;;;;32.39;27.71;101813.66;5054019;28;20036;-83
2022/07/30 10:19:16;;;;;;;4.30;1.40;;;;;;;32.79;27.42;101812.03;5070350;28;20032;-83
2022/07/30 10:21:43;;;;;;;5.47;1.65;;;;;;;32.83;27.34;101810.50;5074275;28;20025;-83
2022/07/30 10:24:09;;;;;;;3.47;1.40;;;;;;;32.91;26.63;101809.25;5074594;28;20040;-83
2022/07/30 10:26:35;;;;;;;4.80;1.38;;;;;;;33.08;27.89;101818.41;5068070;28;20035;-83
2022/07/30 10:29:00;;;;;;;4.38;1.65;;;;;;;33.25;26.35;101812.16;5043455;28;20029;-83
2022/07/30 10:31:26;;;;;;;2.45;1.40;;;;;;;33.48;26.98;101822.22;5074052;28;20028;-83
2022/07/30 10:33:51;;;;;;;4.47;1.52;;;;;;;33.08;26.26;101815.66;5066808;28;20055;-83
2022/07/30 10:36:18;;;;;;;2.08;1.00;;;;;;;33.15;26.43;101812.78;5074289;28;20036;-83
2022/07/30 10:38:45;;;;;;;2.72;1.13;;;;;;;33.18;26.67;101810.38;5074313;28;20494;-83
2022/07/30 10:41:25;;;;;;;2.90;1.27;;;;;;;33.41;26.17;101811.38;5073809;28;20021;-83
2022/07/30 10:43:59;;;;;;;2.20;1.30;;;;;;;33.62;27.11;101811.72;5069158;28;20108;-83
2022/07/30 10:46:58;;;;;;;2.53;1.40;;;;;;;33.97;27.37;101811.50;5066913;28;20043;-83
2022/07/30 10:49:26;;;;;;;5.93;1.58;;;;;;;33.74;25.78;101815.25;5063934;28;20036;-82
2022/07/30 10:51:55;;;;;;;2.50;1.35;;;;;;;33.84;25.32;101812.69;5062608;28;20392;-81
2022/07/30 10:54:32;;;;;;;2.38;1.50;;;;;;;33.77;27.19;101812.00;5051534;28;20091;-83
2022/07/30 10:57:09;;;;;;;2.53;1.23;;;;;;;33.97;27.10;101805.16;5054021;28;20040;-84
2022/07/30 10:59:57;;;;;;;3.88;1.30;;;;;;;33.77;28.52;101813.94;5054031;28;20055;-83
2022/07/30 11:02:23;;;;;;;;;;;;;;;34.38;28.61;101809.38;5048343;28;20033;-82
2022/07/30 11:04:49;;;;;;;5.70;1.92;;;;;;;33.78;25.75;101802.66;5045741;28;19932;-82
2022/07/30 11:07:20;;;;;;;4.47;1.55;;;;;;;33.64;27.35;101801.28;5053675;28;20025;-83
2022/07/30 11:09:46;;;;;;;5.78;1.63;;;;;;;33.68;26.25;101806.06;5054278;28;20033;-83
2022/07/30 11:12:11;;;;;;;10.25;1.80;;;;;;;33.49;26.79;101807.34;5053341;28;20051;-82
2022/07/30 11:14:46;;;;;;;3.10;1.25;;;;;;;33.96;26.75;101808.97;5042825;28;20480;-82
2022/07/30 11:17:16;;;;;;;3.53;1.40;;;;;;;33.54;26.58;101805.53;5056348;28;20061;-81
2022/07/30 11:20:19;;;;;;;5.50;1.88;;;;;;;34.21;27.64;101808.59;5048104;28;20029;-82